IGO1157 VABB-VNKT
Flight info
| Callsign | IGO1157 |
|---|---|
| Flight time | 1h 59m |
| Altitude | 37000 |
| Route | ANOLI2A KAKPO Z4 BPL G590 OMUPA DCT SIMRA SMRA1D |
| Aircraft | A320/M-SDE3FGHIRWY/LB1 |
Departure
| Time | 2026-05-07 12:41 |
|---|---|
| Airport | Chhatrapati Shivaji Maharaj International Airport (VABB) |
Arrival
| Time | 2026-05-07 14:40 |
|---|---|
| Airport | Tribhuvan International Airport (VNKT) |
| Time | Latitude | Longitude | Altitude | Speed | Heading |
|---|---|---|---|---|---|
| 2026-05-07 12:27 | 19.09509 | 72.87132 | 49 ft | 0 kts | 140° |
| 2026-05-07 12:30 | 19.09510 | 72.87131 | 49 ft | 2 kts | 140° |
| 2026-05-07 12:31 | 19.09522 | 72.87121 | 47 ft | 2 kts | 140° |
| 2026-05-07 12:31 | 19.09533 | 72.87110 | 49 ft | 2 kts | 140° |
| 2026-05-07 12:31 | 19.09545 | 72.87100 | 48 ft | 2 kts | 140° |
| 2026-05-07 12:31 | 19.09552 | 72.87093 | 48 ft | 2 kts | 140° |
| 2026-05-07 12:32 | 19.09564 | 72.87083 | 49 ft | 2 kts | 158° |
| 2026-05-07 12:32 | 19.09578 | 72.87079 | 46 ft | 2 kts | 188° |
| 2026-05-07 12:32 | 19.09593 | 72.87082 | 47 ft | 2 kts | 208° |
| 2026-05-07 12:32 | 19.09601 | 72.87087 | 46 ft | 0 kts | 222° |
| 2026-05-07 12:34 | 19.09596 | 72.87082 | 47 ft | 2 kts | 222° |
| 2026-05-07 12:35 | 19.09579 | 72.87066 | 47 ft | 4 kts | 224° |
| 2026-05-07 12:35 | 19.09554 | 72.87039 | 49 ft | 6 kts | 227° |
| 2026-05-07 12:35 | 19.09523 | 72.87001 | 49 ft | 8 kts | 229° |
| 2026-05-07 12:35 | 19.09484 | 72.86954 | 49 ft | 10 kts | 229° |
| 2026-05-07 12:36 | 19.09438 | 72.86897 | 48 ft | 11 kts | 229° |
| 2026-05-07 12:36 | 19.09367 | 72.86877 | 49 ft | 12 kts | 156° |
| 2026-05-07 12:36 | 19.09304 | 72.86942 | 49 ft | 14 kts | 133° |
| 2026-05-07 12:36 | 19.09244 | 72.87011 | 49 ft | 11 kts | 127° |
| 2026-05-07 12:37 | 19.09234 | 72.87096 | 49 ft | 13 kts | 88° |
| 2026-05-07 12:37 | 19.09239 | 72.87195 | 49 ft | 9 kts | 87° |
| 2026-05-07 12:37 | 19.09230 | 72.87247 | 49 ft | 8 kts | 123° |
| 2026-05-07 12:37 | 19.09176 | 72.87279 | 49 ft | 10 kts | 174° |
| 2026-05-07 12:38 | 19.09104 | 72.87277 | 49 ft | 11 kts | 182° |
| 2026-05-07 12:38 | 19.09050 | 72.87314 | 48 ft | 11 kts | 97° |
| 2026-05-07 12:38 | 19.09052 | 72.87400 | 49 ft | 13 kts | 88° |
| 2026-05-07 12:38 | 19.09054 | 72.87501 | 49 ft | 15 kts | 89° |
| 2026-05-07 12:39 | 19.09056 | 72.87618 | 46 ft | 14 kts | 89° |
| 2026-05-07 12:39 | 19.09057 | 72.87703 | 49 ft | 12 kts | 89° |
| 2026-05-07 12:39 | 19.09047 | 72.87798 | 47 ft | 14 kts | 129° |
| 2026-05-07 12:39 | 19.08951 | 72.87813 | 48 ft | 12 kts | 183° |
| 2026-05-07 12:40 | 19.08885 | 72.87772 | 48 ft | 13 kts | 257° |
| 2026-05-07 12:40 | 19.08883 | 72.87656 | 48 ft | 23 kts | 268° |
| 2026-05-07 12:40 | 19.08879 | 72.87247 | 51 ft | 89 kts | 269° |
| 2026-05-07 12:40 | 19.08865 | 72.86390 | 49 ft | 142 kts | 269° |
| 2026-05-07 12:41 | 19.08843 | 72.85193 | 95 ft | 179 kts | 269° |
| 2026-05-07 12:41 | 19.08776 | 72.83913 | 694 ft | 175 kts | 270° |
| 2026-05-07 12:41 | 19.08717 | 72.82615 | 1246 ft | 177 kts | 271° |
| 2026-05-07 12:41 | 19.08708 | 72.81276 | 1628 ft | 190 kts | 272° |
| 2026-05-07 12:42 | 19.08712 | 72.79791 | 1819 ft | 215 kts | 272° |
| 2026-05-07 12:42 | 19.08711 | 72.78130 | 2054 ft | 238 kts | 272° |
| 2026-05-07 12:42 | 19.08703 | 72.76304 | 2443 ft | 258 kts | 271° |
| 2026-05-07 12:42 | 19.08848 | 72.74382 | 3085 ft | 262 kts | 290° |
| 2026-05-07 12:43 | 19.09866 | 72.72820 | 3705 ft | 263 kts | 324° |
| 2026-05-07 12:43 | 19.11568 | 72.72165 | 4387 ft | 268 kts | 358° |
| 2026-05-07 12:43 | 19.13367 | 72.72649 | 5026 ft | 276 kts | 31° |
| 2026-05-07 12:43 | 19.14799 | 72.74024 | 5689 ft | 282 kts | 44° |
| 2026-05-07 12:44 | 19.16393 | 72.75219 | 6341 ft | 283 kts | 17° |
| 2026-05-07 12:44 | 19.18330 | 72.75483 | 6969 ft | 285 kts | 356° |
| 2026-05-07 12:44 | 19.20313 | 72.75254 | 7657 ft | 287 kts | 349° |
| 2026-05-07 12:44 | 19.22292 | 72.74888 | 8345 ft | 291 kts | 349° |
| 2026-05-07 12:45 | 19.24299 | 72.74540 | 9029 ft | 295 kts | 351° |
| 2026-05-07 12:45 | 19.26356 | 72.74256 | 9612 ft | 301 kts | 353° |
| 2026-05-07 12:45 | 19.28452 | 72.74226 | 9753 ft | 304 kts | 7° |
| 2026-05-07 12:45 | 19.30571 | 72.74845 | 9810 ft | 329 kts | 25° |
| 2026-05-07 12:46 | 19.32559 | 72.76170 | 9968 ft | 350 kts | 41° |
| 2026-05-07 12:46 | 19.34397 | 72.77926 | 10336 ft | 360 kts | 42° |
| 2026-05-07 12:46 | 19.36277 | 72.79704 | 10899 ft | 363 kts | 41° |
| 2026-05-07 12:46 | 19.38178 | 72.81479 | 11504 ft | 366 kts | 41° |
| 2026-05-07 12:47 | 19.40097 | 72.83261 | 12116 ft | 368 kts | 41° |
| 2026-05-07 12:47 | 19.42033 | 72.85054 | 12732 ft | 370 kts | 41° |
| 2026-05-07 12:47 | 19.43944 | 72.86897 | 13334 ft | 373 kts | 47° |
| 2026-05-07 12:47 | 19.45537 | 72.89071 | 13871 ft | 375 kts | 59° |
| 2026-05-07 12:48 | 19.46679 | 72.91569 | 14391 ft | 378 kts | 71° |
| 2026-05-07 12:48 | 19.47347 | 72.94264 | 14889 ft | 380 kts | 78° |
| 2026-05-07 12:48 | 19.47902 | 72.97017 | 15401 ft | 382 kts | 78° |
| 2026-05-07 12:48 | 19.48457 | 72.99743 | 15890 ft | 385 kts | 78° |
| 2026-05-07 12:49 | 19.49031 | 73.02566 | 16395 ft | 388 kts | 78° |
| 2026-05-07 12:49 | 19.49604 | 73.05374 | 16901 ft | 391 kts | 78° |
| 2026-05-07 12:49 | 19.50184 | 73.08199 | 17399 ft | 394 kts | 78° |
| 2026-05-07 12:49 | 19.50780 | 73.11046 | 17900 ft | 397 kts | 78° |
| 2026-05-07 12:50 | 19.51392 | 73.13913 | 18348 ft | 400 kts | 77° |
| 2026-05-07 12:50 | 19.52011 | 73.16801 | 18745 ft | 404 kts | 77° |
| 2026-05-07 12:50 | 19.52634 | 73.19722 | 19144 ft | 408 kts | 76° |
| 2026-05-07 12:50 | 19.53261 | 73.22672 | 19551 ft | 412 kts | 76° |
| 2026-05-07 12:51 | 19.53892 | 73.25650 | 19957 ft | 416 kts | 75° |
| 2026-05-07 12:51 | 19.54519 | 73.28615 | 20389 ft | 419 kts | 75° |
| 2026-05-07 12:51 | 19.55156 | 73.31641 | 20813 ft | 422 kts | 76° |
| 2026-05-07 12:51 | 19.55805 | 73.34730 | 21212 ft | 425 kts | 75° |
| 2026-05-07 12:52 | 19.56274 | 73.37805 | 21607 ft | 430 kts | 82° |
| 2026-05-07 12:52 | 19.56579 | 73.40963 | 21985 ft | 433 kts | 82° |
| 2026-05-07 12:52 | 19.56890 | 73.44150 | 22355 ft | 436 kts | 82° |
| 2026-05-07 12:52 | 19.57209 | 73.47359 | 22714 ft | 439 kts | 81° |
| 2026-05-07 12:53 | 19.57530 | 73.50589 | 23069 ft | 442 kts | 81° |
| 2026-05-07 12:53 | 19.57851 | 73.53840 | 23400 ft | 445 kts | 81° |
| 2026-05-07 12:53 | 19.58178 | 73.57113 | 23676 ft | 447 kts | 81° |
| 2026-05-07 12:53 | 19.58505 | 73.60408 | 23952 ft | 450 kts | 81° |
| 2026-05-07 12:54 | 19.58832 | 73.63723 | 24194 ft | 453 kts | 81° |
| 2026-05-07 12:54 | 19.59320 | 73.67019 | 24470 ft | 452 kts | 73° |
| 2026-05-07 12:54 | 19.60282 | 73.70180 | 24751 ft | 451 kts | 64° |
| 2026-05-07 12:54 | 19.61673 | 73.73150 | 25009 ft | 450 kts | 58° |
| 2026-05-07 12:55 | 19.63161 | 73.76078 | 25276 ft | 452 kts | 58° |
| 2026-05-07 12:55 | 19.64656 | 73.79029 | 25534 ft | 455 kts | 58° |
| 2026-05-07 12:55 | 19.66152 | 73.81993 | 25804 ft | 457 kts | 58° |
| 2026-05-07 12:55 | 19.67653 | 73.84974 | 26050 ft | 459 kts | 58° |
| 2026-05-07 12:56 | 19.69160 | 73.87973 | 26325 ft | 461 kts | 58° |
| 2026-05-07 12:56 | 19.70669 | 73.90979 | 26547 ft | 464 kts | 58° |
| 2026-05-07 12:56 | 19.72192 | 73.94009 | 26765 ft | 466 kts | 58° |
| 2026-05-07 12:56 | 19.73719 | 73.97043 | 27002 ft | 467 kts | 58° |
| 2026-05-07 12:57 | 19.75404 | 73.99990 | 27227 ft | 465 kts | 50° |
| 2026-05-07 12:57 | 19.77471 | 74.02607 | 27453 ft | 462 kts | 41° |
| 2026-05-07 12:57 | 19.79873 | 74.04853 | 27686 ft | 459 kts | 34° |
| 2026-05-07 12:57 | 19.82385 | 74.06963 | 27916 ft | 461 kts | 34° |
| 2026-05-07 12:58 | 19.84903 | 74.09086 | 28214 ft | 461 kts | 34° |
| 2026-05-07 12:58 | 19.87411 | 74.11208 | 28568 ft | 460 kts | 34° |
| 2026-05-07 12:58 | 19.89905 | 74.13326 | 28928 ft | 459 kts | 34° |
| 2026-05-07 12:58 | 19.92399 | 74.15444 | 29282 ft | 459 kts | 34° |
| 2026-05-07 12:59 | 19.94890 | 74.17558 | 29643 ft | 458 kts | 34° |
| 2026-05-07 12:59 | 19.97378 | 74.19668 | 30050 ft | 457 kts | 34° |
| 2026-05-07 12:59 | 19.99862 | 74.21776 | 30355 ft | 456 kts | 34° |
| 2026-05-07 12:59 | 20.02340 | 74.23879 | 30623 ft | 457 kts | 34° |
| 2026-05-07 13:00 | 20.04802 | 74.25967 | 30884 ft | 458 kts | 34° |
| 2026-05-07 13:00 | 20.07290 | 74.28077 | 31162 ft | 458 kts | 34° |
| 2026-05-07 13:00 | 20.09783 | 74.30193 | 31438 ft | 459 kts | 34° |
| 2026-05-07 13:00 | 20.12311 | 74.32340 | 31681 ft | 460 kts | 34° |
| 2026-05-07 13:01 | 20.14814 | 74.34468 | 31957 ft | 461 kts | 34° |
| 2026-05-07 13:01 | 20.17324 | 74.36600 | 32237 ft | 461 kts | 34° |
| 2026-05-07 13:01 | 20.19801 | 74.38704 | 32520 ft | 462 kts | 34° |
| 2026-05-07 13:01 | 20.22323 | 74.40848 | 32897 ft | 463 kts | 34° |
| 2026-05-07 13:02 | 20.24835 | 74.42987 | 33235 ft | 463 kts | 34° |
| 2026-05-07 13:02 | 20.27346 | 74.45129 | 33519 ft | 464 kts | 34° |
| 2026-05-07 13:02 | 20.29865 | 74.47282 | 33789 ft | 464 kts | 34° |
| 2026-05-07 13:02 | 20.32388 | 74.49436 | 34026 ft | 464 kts | 34° |
| 2026-05-07 13:03 | 20.34911 | 74.51584 | 34279 ft | 464 kts | 34° |
| 2026-05-07 13:03 | 20.37433 | 74.53730 | 34542 ft | 463 kts | 34° |
| 2026-05-07 13:03 | 20.39950 | 74.55874 | 34802 ft | 463 kts | 34° |
| 2026-05-07 13:03 | 20.42459 | 74.58017 | 35056 ft | 462 kts | 34° |
| 2026-05-07 13:04 | 20.44971 | 74.60166 | 35312 ft | 462 kts | 34° |
| 2026-05-07 13:04 | 20.47473 | 74.62311 | 35557 ft | 461 kts | 35° |
| 2026-05-07 13:04 | 20.49973 | 74.64453 | 35803 ft | 461 kts | 35° |
| 2026-05-07 13:04 | 20.52471 | 74.66590 | 36043 ft | 460 kts | 35° |
| 2026-05-07 13:05 | 20.54967 | 74.68724 | 36271 ft | 459 kts | 35° |
| 2026-05-07 13:05 | 20.57461 | 74.70855 | 36495 ft | 459 kts | 35° |
| 2026-05-07 13:05 | 20.59952 | 74.72987 | 36717 ft | 459 kts | 35° |
| 2026-05-07 13:05 | 20.62443 | 74.75121 | 36819 ft | 460 kts | 35° |
| 2026-05-07 13:06 | 20.67487 | 74.79438 | 36835 ft | 468 kts | 35° |
| 2026-05-07 13:06 | 20.72604 | 74.83784 | 36825 ft | 471 kts | 34° |
| 2026-05-07 13:07 | 20.77734 | 74.88139 | 36822 ft | 471 kts | 34° |
| 2026-05-07 13:07 | 20.82871 | 74.92505 | 36816 ft | 471 kts | 34° |
| 2026-05-07 13:08 | 20.87975 | 74.96836 | 36813 ft | 472 kts | 34° |
| 2026-05-07 13:08 | 20.93113 | 75.01203 | 36819 ft | 472 kts | 34° |
| 2026-05-07 13:09 | 20.98261 | 75.05590 | 36820 ft | 473 kts | 34° |
| 2026-05-07 13:09 | 21.03398 | 75.09973 | 36821 ft | 473 kts | 34° |
| 2026-05-07 13:10 | 21.08545 | 75.14372 | 36823 ft | 473 kts | 34° |
| 2026-05-07 13:10 | 21.13691 | 75.18768 | 36821 ft | 473 kts | 34° |
| 2026-05-07 13:11 | 21.18834 | 75.23170 | 36824 ft | 473 kts | 34° |
| 2026-05-07 13:11 | 21.23960 | 75.27600 | 36828 ft | 473 kts | 34° |
| 2026-05-07 13:12 | 21.29080 | 75.32035 | 36835 ft | 474 kts | 34° |
| 2026-05-07 13:12 | 21.34214 | 75.36479 | 36833 ft | 474 kts | 34° |
| 2026-05-07 13:13 | 21.39355 | 75.40929 | 36840 ft | 475 kts | 34° |
| 2026-05-07 13:13 | 21.44505 | 75.45387 | 36843 ft | 475 kts | 34° |
| 2026-05-07 13:14 | 21.49648 | 75.49842 | 36848 ft | 476 kts | 34° |
| 2026-05-07 13:14 | 21.54773 | 75.54284 | 36849 ft | 476 kts | 34° |
| 2026-05-07 13:15 | 21.59932 | 75.58772 | 36852 ft | 477 kts | 34° |
| 2026-05-07 13:15 | 21.65087 | 75.63251 | 36853 ft | 477 kts | 34° |
| 2026-05-07 13:16 | 21.69412 | 75.67019 | 36856 ft | 477 kts | 34° |
| 2026-05-07 13:16 | 21.74538 | 75.71492 | 36850 ft | 478 kts | 34° |
| 2026-05-07 13:17 | 21.79705 | 75.75986 | 36848 ft | 478 kts | 34° |
| 2026-05-07 13:17 | 21.84874 | 75.80479 | 36844 ft | 477 kts | 34° |
| 2026-05-07 13:18 | 21.90036 | 75.84980 | 36838 ft | 478 kts | 34° |
| 2026-05-07 13:18 | 21.95193 | 75.89496 | 36836 ft | 478 kts | 34° |
| 2026-05-07 13:19 | 22.00348 | 75.94011 | 36837 ft | 477 kts | 34° |
| 2026-05-07 13:19 | 22.05505 | 75.98523 | 36836 ft | 478 kts | 34° |
| 2026-05-07 13:20 | 22.10362 | 76.03470 | 36839 ft | 482 kts | 40° |
| 2026-05-07 13:20 | 22.15078 | 76.08615 | 36833 ft | 482 kts | 40° |
| 2026-05-07 13:21 | 22.19793 | 76.13765 | 36837 ft | 482 kts | 40° |
| 2026-05-07 13:21 | 22.24508 | 76.18921 | 36840 ft | 482 kts | 40° |
| 2026-05-07 13:22 | 22.29226 | 76.24076 | 36839 ft | 482 kts | 40° |
| 2026-05-07 13:22 | 22.33944 | 76.29236 | 36841 ft | 483 kts | 40° |
| 2026-05-07 13:23 | 22.38630 | 76.34370 | 36848 ft | 483 kts | 40° |
| 2026-05-07 13:23 | 22.43347 | 76.39544 | 36845 ft | 483 kts | 40° |
| 2026-05-07 13:24 | 22.48063 | 76.44721 | 36851 ft | 483 kts | 40° |
| 2026-05-07 13:24 | 22.52781 | 76.49898 | 36848 ft | 483 kts | 40° |
| 2026-05-07 13:25 | 22.57500 | 76.55084 | 36857 ft | 484 kts | 40° |
| 2026-05-07 13:25 | 22.62223 | 76.60285 | 36848 ft | 484 kts | 40° |
| 2026-05-07 13:26 | 22.66944 | 76.65495 | 36856 ft | 485 kts | 40° |
| 2026-05-07 13:26 | 22.71662 | 76.70707 | 36859 ft | 485 kts | 40° |
| 2026-05-07 13:27 | 22.76392 | 76.75924 | 36859 ft | 485 kts | 40° |
| 2026-05-07 13:27 | 22.81117 | 76.81154 | 36868 ft | 485 kts | 40° |
| 2026-05-07 13:28 | 22.85846 | 76.86384 | 36857 ft | 486 kts | 40° |
| 2026-05-07 13:28 | 22.90578 | 76.91628 | 36857 ft | 486 kts | 40° |
| 2026-05-07 13:29 | 22.95311 | 76.96875 | 36856 ft | 487 kts | 40° |
| 2026-05-07 13:29 | 23.00041 | 77.02132 | 36862 ft | 487 kts | 40° |
| 2026-05-07 13:30 | 23.04772 | 77.07400 | 36859 ft | 487 kts | 40° |
| 2026-05-07 13:30 | 23.09511 | 77.12662 | 36858 ft | 487 kts | 40° |
| 2026-05-07 13:31 | 23.14244 | 77.17935 | 36855 ft | 487 kts | 40° |
| 2026-05-07 13:31 | 23.18979 | 77.23217 | 36853 ft | 488 kts | 40° |
| 2026-05-07 13:32 | 23.23723 | 77.28505 | 36858 ft | 489 kts | 40° |
| 2026-05-07 13:32 | 23.28386 | 77.33903 | 36856 ft | 494 kts | 47° |
| 2026-05-07 13:33 | 23.32250 | 77.40139 | 36856 ft | 498 kts | 51° |
| 2026-05-07 13:33 | 23.36065 | 77.46432 | 36858 ft | 498 kts | 51° |
| 2026-05-07 13:34 | 23.41806 | 77.55876 | 36858 ft | 499 kts | 51° |
| 2026-05-07 13:35 | 23.45610 | 77.62162 | 36855 ft | 500 kts | 51° |
| 2026-05-07 13:35 | 23.49430 | 77.68480 | 36855 ft | 500 kts | 51° |
| 2026-05-07 13:36 | 23.53252 | 77.74817 | 36853 ft | 501 kts | 51° |
| 2026-05-07 13:36 | 23.57078 | 77.81165 | 36852 ft | 501 kts | 51° |
| 2026-05-07 13:37 | 23.60910 | 77.87520 | 36850 ft | 502 kts | 51° |
| 2026-05-07 13:37 | 23.64739 | 77.93889 | 36853 ft | 502 kts | 51° |
| 2026-05-07 13:38 | 23.68566 | 78.00277 | 36852 ft | 503 kts | 51° |
| 2026-05-07 13:38 | 23.72392 | 78.06663 | 36854 ft | 503 kts | 51° |
| 2026-05-07 13:39 | 23.76232 | 78.13060 | 36860 ft | 504 kts | 51° |
| 2026-05-07 13:39 | 23.80070 | 78.19465 | 36859 ft | 504 kts | 51° |
| 2026-05-07 13:40 | 23.83902 | 78.25878 | 36862 ft | 504 kts | 51° |
| 2026-05-07 13:40 | 23.87727 | 78.32297 | 36864 ft | 504 kts | 51° |
| 2026-05-07 13:41 | 23.91531 | 78.38694 | 36862 ft | 505 kts | 51° |
| 2026-05-07 13:41 | 23.95364 | 78.45132 | 36871 ft | 505 kts | 51° |
| 2026-05-07 13:42 | 23.99192 | 78.51571 | 36865 ft | 506 kts | 51° |
| 2026-05-07 13:42 | 24.03019 | 78.58031 | 36870 ft | 506 kts | 52° |
| 2026-05-07 13:43 | 24.06828 | 78.64515 | 36874 ft | 507 kts | 52° |
| 2026-05-07 13:43 | 24.10630 | 78.71013 | 36868 ft | 507 kts | 52° |
| 2026-05-07 13:44 | 24.14431 | 78.77521 | 36869 ft | 507 kts | 52° |
| 2026-05-07 13:44 | 24.18240 | 78.84031 | 36871 ft | 508 kts | 52° |
| 2026-05-07 13:45 | 24.22049 | 78.90540 | 36873 ft | 508 kts | 52° |
| 2026-05-07 13:45 | 24.25872 | 78.97071 | 36871 ft | 509 kts | 52° |
| 2026-05-07 13:46 | 24.29685 | 79.03608 | 36864 ft | 509 kts | 52° |
| 2026-05-07 13:46 | 24.33498 | 79.10163 | 36860 ft | 510 kts | 52° |
| 2026-05-07 13:47 | 24.37318 | 79.16729 | 36856 ft | 510 kts | 52° |
| 2026-05-07 13:47 | 24.41126 | 79.23295 | 36858 ft | 511 kts | 52° |
| 2026-05-07 13:48 | 24.44944 | 79.29879 | 36859 ft | 512 kts | 52° |
| 2026-05-07 13:48 | 24.48762 | 79.36476 | 36859 ft | 512 kts | 52° |
| 2026-05-07 13:49 | 24.52579 | 79.43085 | 36857 ft | 513 kts | 52° |
| 2026-05-07 13:49 | 24.56372 | 79.49657 | 36856 ft | 513 kts | 52° |
| 2026-05-07 13:50 | 24.60197 | 79.56273 | 36850 ft | 513 kts | 52° |
| 2026-05-07 13:50 | 24.64020 | 79.62894 | 36850 ft | 513 kts | 52° |
| 2026-05-07 13:51 | 24.67830 | 79.69531 | 36846 ft | 513 kts | 53° |
| 2026-05-07 13:51 | 24.71636 | 79.76172 | 36847 ft | 514 kts | 53° |
| 2026-05-07 13:52 | 24.75457 | 79.82825 | 36845 ft | 514 kts | 53° |
| 2026-05-07 13:52 | 24.79198 | 79.89534 | 36841 ft | 517 kts | 59° |
| 2026-05-07 13:53 | 24.81593 | 79.97043 | 36837 ft | 524 kts | 74° |
| 2026-05-07 13:53 | 24.83342 | 80.04832 | 36832 ft | 524 kts | 73° |
| 2026-05-07 13:54 | 24.85094 | 80.12622 | 36830 ft | 525 kts | 74° |
| 2026-05-07 13:54 | 24.86842 | 80.20440 | 36838 ft | 525 kts | 74° |
| 2026-05-07 13:55 | 24.88579 | 80.28261 | 36835 ft | 526 kts | 75° |
| 2026-05-07 13:55 | 24.90316 | 80.36087 | 36848 ft | 526 kts | 74° |
| 2026-05-07 13:56 | 24.92046 | 80.43875 | 36842 ft | 526 kts | 74° |
| 2026-05-07 13:56 | 24.93780 | 80.51710 | 36846 ft | 526 kts | 74° |
| 2026-05-07 13:57 | 24.95518 | 80.59591 | 36845 ft | 526 kts | 74° |
| 2026-05-07 13:57 | 24.97231 | 80.67385 | 36847 ft | 527 kts | 74° |
| 2026-05-07 13:58 | 24.98966 | 80.75287 | 36849 ft | 527 kts | 74° |
| 2026-05-07 13:58 | 25.00671 | 80.83095 | 36856 ft | 527 kts | 75° |
| 2026-05-07 13:59 | 25.02379 | 80.90959 | 36855 ft | 527 kts | 75° |
| 2026-05-07 13:59 | 25.04113 | 80.98817 | 36857 ft | 527 kts | 74° |
| 2026-05-07 14:00 | 25.05881 | 81.06670 | 36858 ft | 528 kts | 74° |
| 2026-05-07 14:00 | 25.07642 | 81.14530 | 36859 ft | 528 kts | 74° |
| 2026-05-07 14:01 | 25.09383 | 81.22391 | 36862 ft | 528 kts | 75° |
| 2026-05-07 14:01 | 25.10836 | 81.28992 | 36858 ft | 528 kts | 75° |
| 2026-05-07 14:02 | 25.12568 | 81.36866 | 36860 ft | 528 kts | 74° |
| 2026-05-07 14:02 | 25.14293 | 81.44704 | 36856 ft | 528 kts | 74° |
| 2026-05-07 14:03 | 25.16060 | 81.52579 | 36856 ft | 529 kts | 74° |
| 2026-05-07 14:03 | 25.17884 | 81.60437 | 36860 ft | 529 kts | 73° |
| 2026-05-07 14:04 | 25.19705 | 81.68306 | 36849 ft | 529 kts | 74° |
| 2026-05-07 14:04 | 25.21506 | 81.76179 | 36849 ft | 530 kts | 74° |
| 2026-05-07 14:05 | 25.23296 | 81.84075 | 36860 ft | 530 kts | 74° |
| 2026-05-07 14:05 | 25.25074 | 81.91970 | 36859 ft | 530 kts | 74° |
| 2026-05-07 14:06 | 25.26857 | 81.99865 | 36861 ft | 530 kts | 74° |
| 2026-05-07 14:06 | 25.28641 | 82.07759 | 36855 ft | 529 kts | 74° |
| 2026-05-07 14:07 | 25.30419 | 82.15654 | 36854 ft | 529 kts | 75° |
| 2026-05-07 14:07 | 25.32186 | 82.23552 | 36858 ft | 529 kts | 75° |
| 2026-05-07 14:08 | 25.33929 | 82.31458 | 36858 ft | 529 kts | 75° |
| 2026-05-07 14:08 | 25.35607 | 82.39392 | 36869 ft | 529 kts | 76° |
| 2026-05-07 14:09 | 25.37266 | 82.47315 | 36868 ft | 529 kts | 76° |
| 2026-05-07 14:09 | 25.38948 | 82.55248 | 36858 ft | 530 kts | 76° |
| 2026-05-07 14:10 | 25.40633 | 82.63177 | 36849 ft | 529 kts | 76° |
| 2026-05-07 14:10 | 25.42307 | 82.71107 | 36853 ft | 529 kts | 76° |
| 2026-05-07 14:11 | 25.43961 | 82.78985 | 36851 ft | 529 kts | 75° |
| 2026-05-07 14:11 | 25.46587 | 82.86519 | 36857 ft | 523 kts | 56° |
| 2026-05-07 14:12 | 25.50902 | 82.92878 | 36851 ft | 515 kts | 44° |
| 2026-05-07 14:12 | 25.55623 | 82.98843 | 36866 ft | 515 kts | 44° |
| 2026-05-07 14:13 | 25.60338 | 83.04825 | 36870 ft | 516 kts | 44° |
| 2026-05-07 14:13 | 25.65037 | 83.10820 | 36879 ft | 516 kts | 44° |
| 2026-05-07 14:14 | 25.69753 | 83.16827 | 36881 ft | 516 kts | 44° |
| 2026-05-07 14:14 | 25.74467 | 83.22830 | 36882 ft | 516 kts | 44° |
| 2026-05-07 14:15 | 25.79174 | 83.28836 | 36881 ft | 516 kts | 44° |
| 2026-05-07 14:15 | 25.83931 | 83.34812 | 36879 ft | 516 kts | 44° |
| 2026-05-07 14:16 | 25.88720 | 83.40733 | 36871 ft | 516 kts | 44° |
| 2026-05-07 14:16 | 25.93510 | 83.46673 | 36876 ft | 516 kts | 44° |
| 2026-05-07 14:17 | 25.98284 | 83.52638 | 36875 ft | 516 kts | 44° |
| 2026-05-07 14:17 | 26.03046 | 83.58616 | 36873 ft | 517 kts | 44° |
| 2026-05-07 14:18 | 26.07228 | 83.63831 | 36874 ft | 516 kts | 44° |
| 2026-05-07 14:18 | 26.12042 | 83.69761 | 36873 ft | 516 kts | 44° |
| 2026-05-07 14:19 | 26.16846 | 83.75689 | 36876 ft | 516 kts | 44° |
| 2026-05-07 14:19 | 26.21644 | 83.81638 | 36876 ft | 516 kts | 44° |
| 2026-05-07 14:20 | 26.26440 | 83.87597 | 36872 ft | 516 kts | 44° |
| 2026-05-07 14:20 | 26.31244 | 83.93540 | 36872 ft | 516 kts | 44° |
| 2026-05-07 14:21 | 26.36060 | 83.99468 | 36871 ft | 516 kts | 44° |
| 2026-05-07 14:21 | 26.40875 | 84.05402 | 36873 ft | 516 kts | 44° |
| 2026-05-07 14:22 | 26.45688 | 84.11351 | 36460 ft | 516 kts | 44° |
| 2026-05-07 14:22 | 26.48113 | 84.14352 | 35534 ft | 523 kts | 45° |
| 2026-05-07 14:22 | 26.50552 | 84.17371 | 34670 ft | 526 kts | 45° |
| 2026-05-07 14:22 | 26.52991 | 84.20396 | 34040 ft | 522 kts | 45° |
| 2026-05-07 14:23 | 26.55419 | 84.23417 | 33164 ft | 522 kts | 46° |
| 2026-05-07 14:23 | 26.57841 | 84.26433 | 32261 ft | 521 kts | 47° |
| 2026-05-07 14:23 | 26.60257 | 84.29444 | 31356 ft | 520 kts | 47° |
| 2026-05-07 14:23 | 26.62664 | 84.32448 | 30438 ft | 518 kts | 48° |
| 2026-05-07 14:24 | 26.65058 | 84.35430 | 29670 ft | 513 kts | 48° |
| 2026-05-07 14:24 | 26.67438 | 84.38387 | 28776 ft | 509 kts | 48° |
| 2026-05-07 14:24 | 26.69803 | 84.41309 | 27996 ft | 504 kts | 47° |
| 2026-05-07 14:24 | 26.72145 | 84.44194 | 27230 ft | 500 kts | 47° |
| 2026-05-07 14:25 | 26.74441 | 84.47021 | 26650 ft | 493 kts | 47° |
| 2026-05-07 14:25 | 26.76735 | 84.49851 | 25910 ft | 490 kts | 47° |
| 2026-05-07 14:25 | 26.79002 | 84.52657 | 25289 ft | 484 kts | 46° |
| 2026-05-07 14:25 | 26.81245 | 84.55438 | 24724 ft | 478 kts | 46° |
| 2026-05-07 14:26 | 26.83466 | 84.58193 | 24130 ft | 473 kts | 46° |
| 2026-05-07 14:26 | 26.85665 | 84.60920 | 23492 ft | 470 kts | 46° |
| 2026-05-07 14:26 | 26.87839 | 84.63618 | 22837 ft | 465 kts | 46° |
| 2026-05-07 14:26 | 26.89990 | 84.66289 | 22296 ft | 457 kts | 46° |
| 2026-05-07 14:27 | 26.92108 | 84.68925 | 21658 ft | 453 kts | 46° |
| 2026-05-07 14:27 | 26.94195 | 84.71523 | 21155 ft | 445 kts | 46° |
| 2026-05-07 14:27 | 26.96255 | 84.74086 | 20628 ft | 440 kts | 45° |
| 2026-05-07 14:27 | 26.98294 | 84.76620 | 20092 ft | 436 kts | 45° |
| 2026-05-07 14:28 | 27.00316 | 84.79130 | 19568 ft | 432 kts | 45° |
| 2026-05-07 14:28 | 27.02345 | 84.81600 | 19034 ft | 429 kts | 44° |
| 2026-05-07 14:28 | 27.04387 | 84.84029 | 18478 ft | 427 kts | 44° |
| 2026-05-07 14:28 | 27.06428 | 84.86423 | 17987 ft | 423 kts | 44° |
| 2026-05-07 14:29 | 27.08463 | 84.88802 | 17486 ft | 419 kts | 44° |
| 2026-05-07 14:29 | 27.10463 | 84.91151 | 17008 ft | 414 kts | 44° |
| 2026-05-07 14:29 | 27.12441 | 84.93487 | 16472 ft | 411 kts | 45° |
| 2026-05-07 14:29 | 27.14395 | 84.95804 | 15974 ft | 407 kts | 45° |
| 2026-05-07 14:30 | 27.16313 | 84.98102 | 15219 ft | 398 kts | 47° |
| 2026-05-07 14:30 | 27.18016 | 85.00520 | 14417 ft | 389 kts | 51° |
| 2026-05-07 14:30 | 27.19640 | 85.02873 | 13908 ft | 373 kts | 51° |
| 2026-05-07 14:30 | 27.21220 | 85.05145 | 13445 ft | 368 kts | 51° |
| 2026-05-07 14:31 | 27.22792 | 85.07398 | 12893 ft | 364 kts | 51° |
| 2026-05-07 14:31 | 27.24351 | 85.09633 | 12399 ft | 362 kts | 51° |
| 2026-05-07 14:31 | 27.25881 | 85.11835 | 11995 ft | 349 kts | 51° |
| 2026-05-07 14:31 | 27.27326 | 85.13919 | 11860 ft | 326 kts | 51° |
| 2026-05-07 14:32 | 27.28685 | 85.15882 | 11486 ft | 314 kts | 50° |
| 2026-05-07 14:32 | 27.30193 | 85.17595 | 11176 ft | 304 kts | 36° |
| 2026-05-07 14:32 | 27.31990 | 85.18838 | 10928 ft | 303 kts | 22° |
| 2026-05-07 14:32 | 27.33945 | 85.19750 | 10366 ft | 307 kts | 20° |
| 2026-05-07 14:33 | 27.35249 | 85.20342 | 10088 ft | 302 kts | 20° |
| 2026-05-07 14:33 | 27.37108 | 85.21190 | 9832 ft | 291 kts | 20° |
| 2026-05-07 14:33 | 27.38936 | 85.22019 | 9691 ft | 275 kts | 20° |
| 2026-05-07 14:33 | 27.40677 | 85.22808 | 9332 ft | 268 kts | 20° |
| 2026-05-07 14:34 | 27.42422 | 85.23598 | 8957 ft | 271 kts | 20° |
| 2026-05-07 14:34 | 27.44164 | 85.24385 | 8693 ft | 269 kts | 19° |
| 2026-05-07 14:34 | 27.45983 | 85.24848 | 8502 ft | 268 kts | 2° |
| 2026-05-07 14:34 | 27.47806 | 85.24637 | 8299 ft | 263 kts | 343° |
| 2026-05-07 14:35 | 27.49546 | 85.24101 | 8057 ft | 253 kts | 343° |
| 2026-05-07 14:35 | 27.51194 | 85.23674 | 8003 ft | 235 kts | 352° |
| 2026-05-07 14:35 | 27.52758 | 85.23662 | 7896 ft | 216 kts | 6° |
| 2026-05-07 14:35 | 27.54180 | 85.24020 | 7681 ft | 205 kts | 18° |
| 2026-05-07 14:36 | 27.55442 | 85.24690 | 7436 ft | 197 kts | 31° |
| 2026-05-07 14:36 | 27.56522 | 85.25607 | 7139 ft | 191 kts | 39° |
| 2026-05-07 14:36 | 27.57513 | 85.26550 | 6890 ft | 183 kts | 39° |
| 2026-05-07 14:36 | 27.58444 | 85.27489 | 6664 ft | 181 kts | 46° |
| 2026-05-07 14:37 | 27.59227 | 85.28588 | 6437 ft | 179 kts | 56° |
| 2026-05-07 14:37 | 27.60550 | 85.30735 | 6001 ft | 158 kts | 48° |
| 2026-05-07 14:37 | 27.61325 | 85.31589 | 5811 ft | 155 kts | 40° |
| 2026-05-07 14:38 | 27.62182 | 85.32318 | 5625 ft | 154 kts | 33° |
| 2026-05-07 14:38 | 27.63120 | 85.32923 | 5424 ft | 153 kts | 26° |
| 2026-05-07 14:38 | 27.64084 | 85.33387 | 5226 ft | 153 kts | 22° |
| 2026-05-07 14:38 | 27.65064 | 85.33841 | 4989 ft | 152 kts | 22° |
| 2026-05-07 14:39 | 27.66051 | 85.34283 | 4783 ft | 152 kts | 20° |
| 2026-05-07 14:39 | 27.67030 | 85.34715 | 4618 ft | 152 kts | 22° |
| 2026-05-07 14:39 | 27.68009 | 85.35165 | 4457 ft | 152 kts | 22° |
| 2026-05-07 14:39 | 27.68981 | 85.35610 | 4356 ft | 147 kts | 22° |
| 2026-05-07 14:40 | 27.69783 | 85.35974 | 4380 ft | 100 kts | 22° |
| 2026-05-07 14:40 | 27.70191 | 85.36158 | 4381 ft | 39 kts | 22° |
| 2026-05-07 14:40 | 27.70427 | 85.36268 | 4392 ft | 30 kts | 23° |
| 2026-05-07 14:40 | 27.70554 | 85.36316 | 4393 ft | 15 kts | 345° |
| 2026-05-07 14:41 | 27.70550 | 85.36218 | 4392 ft | 15 kts | 223° |
| 2026-05-07 14:41 | 27.70449 | 85.36164 | 4390 ft | 17 kts | 200° |
| 2026-05-07 14:41 | 27.70327 | 85.36112 | 4385 ft | 20 kts | 204° |
| 2026-05-07 14:41 | 27.70228 | 85.36062 | 4381 ft | 16 kts | 203° |
| 2026-05-07 14:42 | 27.70113 | 85.36009 | 4374 ft | 19 kts | 202° |
| 2026-05-07 14:42 | 27.70026 | 85.35967 | 4377 ft | 13 kts | 202° |
| 2026-05-07 14:42 | 27.69937 | 85.35926 | 4373 ft | 13 kts | 202° |
| 2026-05-07 14:42 | 27.69879 | 85.35901 | 4379 ft | 8 kts | 199° |
| 2026-05-07 14:43 | 27.69851 | 85.35880 | 4365 ft | 8 kts | 239° |
| 2026-05-07 14:43 | 27.69867 | 85.35813 | 4359 ft | 7 kts | 293° |
| 2026-05-07 14:43 | 27.69876 | 85.35789 | 4369 ft | 0 kts | 292° |